Time;durP1;ratioP1;P1;durP2;ratioP2;P2;SDS_P1;SDS_P2;PMS_P1;PMS_P2;Temp;Humidity;BMP_temperature;BMP_pressure;BME280_temperature;BME280_humidity;BME280_pressure;Samples;Min_cycle;Max_cycle;Signal;HPM_P1;HPM_P2
2022/03/24 00:00:50;;;;;;;25.10;17.00;;;8.60;61.80;;;;;;5060238;28;20452;-43
2022/03/24 00:03:17;;;;;;;25.53;17.90;;;8.60;61.80;;;;;;5059558;28;20461;-43
2022/03/24 00:05:49;;;;;;;23.30;17.03;;;8.60;62.00;;;;;;5059177;28;20838;-43
2022/03/24 00:08:16;;;;;;;30.33;16.73;;;8.60;62.10;;;;;;5049037;28;20499;-43
2022/03/24 00:10:43;;;;;;;23.27;16.57;;;8.50;62.20;;;;;;5057436;28;20524;-43
2022/03/24 00:13:10;;;;;;;23.17;16.70;;;8.50;62.20;;;;;;5056945;28;20496;-43
2022/03/24 00:15:37;;;;;;;25.10;17.03;;;8.50;62.30;;;;;;5055792;28;20462;-42
2022/03/24 00:18:03;;;;;;;25.50;18.80;;;8.50;62.50;;;;;;5044802;28;20461;-42
2022/03/24 00:20:30;;;;;;;25.33;15.87;;;8.50;62.50;;;;;;5059939;28;20485;-42
2022/03/24 00:22:57;;;;;;;24.10;17.20;;;8.40;62.60;;;;;;5062154;28;20834;-42
2022/03/24 00:25:24;;;;;;;26.43;15.67;;;8.40;62.50;;;;;;5060365;28;20540;-42
2022/03/24 00:27:51;;;;;;;22.97;16.50;;;8.40;62.60;;;;;;5051680;28;20470;-43
2022/03/24 00:30:17;;;;;;;23.93;17.20;;;8.40;62.60;;;;;;5058724;28;20450;-42
2022/03/24 00:32:44;;;;;;;24.67;16.90;;;8.30;62.70;;;;;;5061570;28;20550;-42
2022/03/24 00:35:11;;;;;;;25.57;16.87;;;8.30;62.90;;;;;;5062372;28;20541;-42
2022/03/24 00:37:38;;;;;;;24.43;17.40;;;8.30;63.00;;;;;;5060826;28;20462;-42
2022/03/24 00:40:07;;;;;;;22.43;16.10;;;8.20;63.00;;;;;;5058446;28;20560;-42
2022/03/24 00:42:36;;;;;;;23.20;16.23;;;8.20;63.00;;;;;;5062182;28;20877;-42
2022/03/24 00:45:09;;;;;;;24.70;17.37;;;8.20;63.30;;;;;;5064068;28;20455;-42
2022/03/24 00:47:36;;;;;;;29.53;16.20;;;8.20;63.50;;;;;;5061275;28;20478;-42
2022/03/24 00:50:08;;;;;;;22.07;16.03;;;8.10;63.50;;;;;;5059261;28;20455;-42
2022/03/24 00:52:41;;;;;;;26.60;17.20;;;8.10;63.60;;;;;;5066903;28;20548;-42
2022/03/24 00:55:13;;;;;;;22.03;15.97;;;8.10;63.50;;;;;;5059002;28;20939;-42
2022/03/24 00:57:42;;;;;;;24.33;16.00;;;8.00;63.70;;;;;;5059733;28;20471;-42
2022/03/24 01:00:18;;;;;;;21.10;15.93;;;8.00;63.80;;;;;;5059957;28;21028;-42
2022/03/24 01:02:48;;;;;;;25.50;17.00;;;8.00;63.80;;;;;;5051247;28;20563;-42
2022/03/24 01:05:16;;;;;;;27.43;16.00;;;8.00;63.90;;;;;;5060152;28;20553;-42
2022/03/24 01:07:45;;;;;;;23.50;16.30;;;7.90;64.10;;;;;;5060926;28;20475;-42
2022/03/24 01:10:14;;;;;;;25.33;16.50;;;7.90;64.20;;;;;;5058848;28;20473;-42
2022/03/24 01:12:41;;;;;;;25.00;17.10;;;7.90;64.10;;;;;;5059301;28;20469;-42
2022/03/24 01:15:16;;;;;;;27.23;17.57;;;7.90;64.30;;;;;;5058401;28;20497;-42
2022/03/24 01:17:43;;;;;;;28.87;16.90;;;7.80;64.30;;;;;;5043222;28;20519;-42
2022/03/24 01:20:11;;;;;;;28.07;17.43;;;7.80;64.50;;;;;;5057427;28;20451;-42
2022/03/24 01:22:39;;;;;;;23.30;18.40;;;7.80;64.90;;;;;;5057517;28;20464;-42
2022/03/24 01:25:09;;;;;;;23.17;15.67;;;7.80;65.00;;;;;;5059745;28;20557;-42
2022/03/24 01:27:38;;;;;;;27.13;16.70;;;7.70;64.90;;;;;;5057160;28;20492;-42
2022/03/24 01:30:09;;;;;;;22.57;16.33;;;7.70;64.90;;;;;;5057977;28;20537;-42
2022/03/24 01:32:40;;;;;;;23.70;15.93;;;7.70;64.90;;;;;;5061081;28;20460;-42
2022/03/24 01:35:07;;;;;;;24.00;16.30;;;7.60;64.90;;;;;;5038653;28;20580;-42
2022/03/24 01:37:36;;;;;;;26.03;16.33;;;7.60;64.80;;;;;;5061751;28;20848;-42
2022/03/24 01:40:05;;;;;;;23.70;16.40;;;7.60;64.80;;;;;;5057894;28;20516;-42
2022/03/24 01:42:34;;;;;;;21.67;15.60;;;7.50;65.00;;;;;;5057375;28;20448;-42
2022/03/24 01:45:03;;;;;;;23.50;15.37;;;7.50;65.00;;;;;;5062339;28;20552;-42
2022/03/24 01:47:30;;;;;;;25.50;15.27;;;7.50;65.10;;;;;;5058065;28;20485;-42
2022/03/24 01:49:58;;;;;;;22.57;15.60;;;7.40;65.00;;;;;;5063890;28;20446;-42
2022/03/24 01:52:26;;;;;;;24.13;14.53;;;7.40;65.00;;;;;;5058742;28;20526;-42
2022/03/24 01:54:56;;;;;;;26.40;15.43;;;7.40;65.10;;;;;;5059614;28;20687;-42
2022/03/24 01:57:25;;;;;;;21.17;13.70;;;7.40;65.10;;;;;;5053712;28;20483;-42
2022/03/24 01:59:53;;;;;;;20.87;13.30;;;7.30;65.30;;;;;;5060766;28;20952;-42
2022/03/24 02:02:21;;;;;;;23.80;13.97;;;7.30;65.30;;;;;;5056385;28;20447;-42
2022/03/24 02:04:48;;;;;;;22.03;14.30;;;7.30;65.20;;;;;;5056514;28;20500;-42
2022/03/24 02:07:15;;;;;;;22.90;13.43;;;7.20;65.10;;;;;;5059244;28;20561;-42
2022/03/24 02:09:42;;;;;;;21.07;12.80;;;7.20;65.20;;;;;;5041713;28;20994;-43
2022/03/24 02:12:11;;;;;;;19.40;13.90;;;7.20;65.20;;;;;;5056732;28;20459;-43
2022/03/24 02:14:39;;;;;;;24.67;12.90;;;7.20;65.30;;;;;;5036034;28;20501;-43
2022/03/24 02:17:06;;;;;;;18.40;12.70;;;7.20;65.00;;;;;;5058658;28;20827;-42
2022/03/24 02:19:36;;;;;;;19.20;13.00;;;7.10;65.10;;;;;;5061656;28;20450;-42
2022/03/24 02:22:13;;;;;;;22.00;12.67;;;7.10;65.40;;;;;;5060907;28;20450;-42
2022/03/24 02:24:40;;;;;;;22.07;13.80;;;7.00;65.60;;;;;;5061399;28;20516;-43
2022/03/24 02:27:08;;;;;;;19.67;12.20;;;7.00;65.80;;;;;;5056870;28;20463;-43
2022/03/24 02:29:35;;;;;;;16.47;12.03;;;6.90;65.90;;;;;;5060546;28;20492;-43
2022/03/24 02:32:07;;;;;;;17.47;11.13;;;6.90;66.00;;;;;;5059349;28;20531;-43
2022/03/24 02:34:40;;;;;;;18.23;12.23;;;6.90;66.00;;;;;;5057516;28;20496;-42
2022/03/24 02:37:13;;;;;;;20.70;14.37;;;6.90;66.00;;;;;;5058955;28;20462;-42
2022/03/24 02:39:43;;;;;;;18.03;12.97;;;6.90;66.10;;;;;;5058217;28;20463;-42
2022/03/24 02:42:15;;;;;;;22.67;12.50;;;6.90;66.20;;;;;;5045488;28;20450;-42
2022/03/24 02:44:47;;;;;;;21.33;13.97;;;6.80;66.20;;;;;;5061106;28;20474;-42
2022/03/24 02:47:16;;;;;;;22.40;14.00;;;6.80;66.30;;;;;;5057417;28;21019;-43
2022/03/24 02:49:44;;;;;;;18.00;13.70;;;6.80;66.50;;;;;;5059364;28;20458;-42
2022/03/24 02:52:12;;;;;;;23.23;15.97;;;6.80;66.50;;;;;;5061578;28;20465;-42
2022/03/24 02:54:40;;;;;;;20.93;14.20;;;6.80;66.40;;;;;;5054437;28;20494;-42
2022/03/24 02:57:07;;;;;;;22.07;14.10;;;6.70;66.70;;;;;;5057118;28;20455;-42
2022/03/24 02:59:35;;;;;;;23.83;16.20;;;6.70;67.00;;;;;;5045416;28;20459;-42
2022/03/24 03:02:08;;;;;;;23.60;15.17;;;6.70;67.10;;;;;;5058960;28;20464;-42
2022/03/24 03:04:35;;;;;;;21.13;14.67;;;6.70;67.20;;;;;;5054350;28;20463;-42
2022/03/24 03:07:03;;;;;;;18.30;13.27;;;6.70;67.40;;;;;;5058184;28;20450;-42
2022/03/24 03:09:32;;;;;;;23.30;14.60;;;6.70;67.40;;;;;;5060982;28;20974;-42
2022/03/24 03:11:59;;;;;;;18.00;12.20;;;6.60;67.50;;;;;;5055369;28;20461;-42
2022/03/24 03:14:30;;;;;;;19.40;14.47;;;6.60;67.50;;;;;;5056315;28;21033;-42
2022/03/24 03:16:58;;;;;;;21.00;12.40;;;6.60;67.50;;;;;;5060286;28;20534;-42
2022/03/24 03:19:25;;;;;;;19.90;12.87;;;6.60;67.70;;;;;;5056826;28;20999;-42
2022/03/24 03:21:52;;;;;;;23.97;13.47;;;6.60;67.60;;;;;;5053769;28;20547;-42
2022/03/24 03:24:22;;;;;;;19.50;13.30;;;6.60;67.70;;;;;;5054434;28;20471;-42
2022/03/24 03:26:49;;;;;;;19.00;14.00;;;6.60;67.70;;;;;;5055157;28;20465;-42
2022/03/24 03:29:17;;;;;;;17.93;12.90;;;6.50;67.80;;;;;;5061902;28;20461;-42
2022/03/24 03:31:45;;;;;;;21.67;13.37;;;6.50;67.90;;;;;;5058917;28;20464;-43
2022/03/24 03:34:13;;;;;;;23.43;14.53;;;6.50;68.00;;;;;;5063345;28;20474;-43
2022/03/24 03:36:40;;;;;;;20.87;13.93;;;6.50;67.90;;;;;;5044920;28;20947;-43
2022/03/24 03:39:07;;;;;;;23.17;13.80;;;6.50;68.00;;;;;;5061703;28;20462;-43
2022/03/24 03:41:36;;;;;;;20.23;13.90;;;6.50;68.30;;;;;;5059468;28;20457;-43
2022/03/24 03:44:04;;;;;;;18.90;13.37;;;6.40;68.30;;;;;;5064264;28;20946;-43
2022/03/24 03:46:31;;;;;;;21.10;13.17;;;6.40;68.40;;;;;;5062683;28;20483;-43
2022/03/24 03:48:58;;;;;;;19.50;13.10;;;6.40;68.50;;;;;;5060980;28;20473;-42
2022/03/24 03:51:27;;;;;;;19.60;13.83;;;6.30;68.50;;;;;;5060259;28;20480;-42
2022/03/24 03:53:54;;;;;;;23.20;14.30;;;6.30;68.50;;;;;;5059021;28;20585;-42
2022/03/24 03:56:21;;;;;;;18.40;13.27;;;6.30;68.50;;;;;;5062804;28;20489;-42
2022/03/24 03:58:48;;;;;;;20.60;13.77;;;6.30;68.50;;;;;;5046911;28;20959;-42
2022/03/24 04:01:18;;;;;;;18.77;12.27;;;6.20;68.70;;;;;;5047913;28;20473;-42
2022/03/24 04:03:45;;;;;;;22.10;12.97;;;6.30;68.80;;;;;;5060597;28;20516;-42
2022/03/24 04:06:13;;;;;;;23.83;13.87;;;6.20;68.70;;;;;;5064000;28;20486;-42
2022/03/24 04:08:42;;;;;;;27.33;12.90;;;6.20;68.60;;;;;;5063808;28;20459;-42
2022/03/24 04:11:10;;;;;;;21.17;13.03;;;6.20;68.60;;;;;;5057045;28;20943;-42
2022/03/24 04:13:39;;;;;;;19.60;13.17;;;6.20;68.60;;;;;;5063324;28;20450;-42
2022/03/24 04:16:14;;;;;;;18.00;13.23;;;6.10;68.60;;;;;;5059025;28;20539;-42
2022/03/24 04:18:48;;;;;;;20.77;14.00;;;6.10;68.90;;;;;;5062739;28;21003;-42
2022/03/24 04:21:16;;;;;;;21.10;12.30;;;6.10;68.90;;;;;;5062784;28;20454;-42
2022/03/24 04:23:44;;;;;;;20.73;13.37;;;6.10;69.00;;;;;;5061394;28;20956;-42
2022/03/24 04:26:11;;;;;;;20.17;11.70;;;6.10;69.10;;;;;;5056892;28;20833;-42
2022/03/24 04:28:39;;;;;;;24.73;13.90;;;6.10;69.10;;;;;;5056566;28;20832;-42
2022/03/24 04:31:06;;;;;;;20.00;12.83;;;6.10;69.10;;;;;;5061143;28;20456;-42
2022/03/24 04:33:33;;;;;;;19.17;13.00;;;6.10;69.10;;;;;;5062081;28;20452;-41
2022/03/24 04:35:59;;;;;;;22.33;12.93;;;6.00;69.00;;;;;;5062714;28;21033;-41
2022/03/24 04:38:27;;;;;;;18.20;12.27;;;6.00;69.20;;;;;;5043051;28;20479;-42
2022/03/24 04:40:57;;;;;;;21.10;13.77;;;6.00;69.20;;;;;;5043944;28;20454;-42
2022/03/24 04:43:24;;;;;;;19.90;13.40;;;6.00;69.20;;;;;;5061102;28;20491;-42
2022/03/24 04:45:52;;;;;;;23.60;12.50;;;6.00;69.20;;;;;;5060956;28;20469;-42
2022/03/24 04:48:19;;;;;;;22.50;12.63;;;6.00;69.30;;;;;;5049296;28;20534;-42
2022/03/24 04:50:46;;;;;;;23.40;15.43;;;6.00;69.20;;;;;;5045600;28;20455;-42
2022/03/24 04:53:15;;;;;;;17.73;11.80;;;6.00;69.20;;;;;;5060253;28;20477;-42
2022/03/24 04:55:43;;;;;;;21.90;12.90;;;5.90;69.20;;;;;;5057663;28;20556;-42
2022/03/24 04:58:11;;;;;;;20.47;13.30;;;5.90;69.10;;;;;;5049212;28;20446;-42
2022/03/24 05:00:39;;;;;;;20.00;14.57;;;5.80;69.20;;;;;;5058174;28;20450;-42
2022/03/24 05:03:06;;;;;;;20.33;12.70;;;5.80;69.30;;;;;;5061119;28;20451;-42
2022/03/24 05:05:33;;;;;;;18.67;12.23;;;5.80;69.30;;;;;;5060284;28;20503;-42
2022/03/24 05:08:00;;;;;;;22.10;12.53;;;5.80;69.20;;;;;;5057773;28;20566;-42
2022/03/24 05:10:27;;;;;;;20.93;13.23;;;5.70;69.00;;;;;;5058453;28;20457;-42
2022/03/24 05:12:54;;;;;;;31.30;15.20;;;5.70;69.10;;;;;;5057915;28;20457;-42
2022/03/24 05:15:23;;;;;;;21.77;13.43;;;5.70;69.00;;;;;;5049169;28;21079;-41
2022/03/24 05:17:51;;;;;;;17.60;11.73;;;5.60;69.00;;;;;;5060357;28;20545;-42
2022/03/24 05:20:18;;;;;;;19.30;13.37;;;5.60;69.20;;;;;;5041847;28;20525;-42
2022/03/24 05:22:44;;;;;;;21.10;12.80;;;5.50;69.30;;;;;;5042270;28;20524;-42
2022/03/24 05:25:11;;;;;;;24.07;13.03;;;5.50;69.30;;;;;;5059389;28;20485;-42
2022/03/24 05:27:38;;;;;;;20.70;12.13;;;5.50;69.40;;;;;;5057391;28;20559;-42
2022/03/24 05:30:05;;;;;;;20.83;13.67;;;5.50;69.50;;;;;;5059399;28;20462;-41
2022/03/24 05:32:32;;;;;;;18.80;12.03;;;5.40;69.40;;;;;;5061708;28;20457;-42
2022/03/24 05:35:00;;;;;;;21.53;12.67;;;5.40;69.70;;;;;;5059583;28;20497;-42
2022/03/24 05:37:27;;;;;;;23.27;13.80;;;5.40;69.80;;;;;;5060097;28;20948;-42
2022/03/24 05:39:54;;;;;;;24.50;14.30;;;5.40;69.80;;;;;;5061707;28;20458;-42
2022/03/24 05:42:21;;;;;;;20.53;13.00;;;5.40;69.90;;;;;;5046290;28;20530;-42
2022/03/24 05:44:48;;;;;;;27.83;13.60;;;5.40;69.90;;;;;;5057676;28;20462;-42
2022/03/24 05:47:15;;;;;;;25.40;14.00;;;5.40;69.90;;;;;;5060113;28;20486;-42
2022/03/24 05:49:41;;;;;;;25.67;12.90;;;5.40;70.00;;;;;;5060640;28;21070;-42
2022/03/24 05:52:08;;;;;;;24.30;14.27;;;5.40;70.00;;;;;;5058512;28;20987;-42
2022/03/24 05:54:35;;;;;;;23.93;14.07;;;5.40;70.00;;;;;;5056552;28;20846;-42
2022/03/24 05:57:03;;;;;;;22.50;14.57;;;5.40;70.00;;;;;;5037728;28;20550;-42
2022/03/24 05:59:29;;;;;;;22.63;14.30;;;5.50;70.10;;;;;;5060845;28;20455;-42
2022/03/24 06:01:57;;;;;;;21.37;12.70;;;5.50;70.10;;;;;;5056810;28;20466;-42
2022/03/24 06:04:24;;;;;;;24.50;13.47;;;5.50;70.20;;;;;;5056814;28;20545;-42
2022/03/24 06:06:54;;;;;;;23.50;13.93;;;5.50;70.20;;;;;;5059428;28;20458;-42
2022/03/24 06:09:21;;;;;;;29.43;15.03;;;5.60;70.50;;;;;;5058587;28;20537;-42
2022/03/24 06:11:48;;;;;;;24.03;13.03;;;5.60;70.40;;;;;;5059099;28;20644;-42
2022/03/24 06:14:15;;;;;;;26.03;14.30;;;5.60;70.30;;;;;;5042513;28;20458;-42
2022/03/24 06:16:42;;;;;;;21.97;13.23;;;5.60;70.20;;;;;;5056264;28;20458;-42
2022/03/24 06:19:10;;;;;;;18.80;13.30;;;5.60;70.30;;;;;;5056227;28;20464;-42
2022/03/24 06:21:38;;;;;;;19.30;12.87;;;5.70;70.30;;;;;;5041604;28;20477;-42
2022/03/24 06:24:07;;;;;;;23.20;12.77;;;5.70;70.40;;;;;;5062056;28;20550;-42
2022/03/24 06:26:34;;;;;;;22.13;13.83;;;5.70;70.60;;;;;;5057073;28;21010;-42
2022/03/24 06:29:01;;;;;;;25.47;14.47;;;5.80;70.60;;;;;;5042331;28;20821;-42
2022/03/24 06:31:30;;;;;;;25.17;14.73;;;5.80;70.50;;;;;;5035657;28;20557;-42
2022/03/24 06:33:57;;;;;;;21.17;13.07;;;5.80;70.50;;;;;;5039452;28;21156;-42
2022/03/24 06:36:24;;;;;;;23.17;14.77;;;5.90;70.60;;;;;;5059174;28;20485;-42
2022/03/24 06:38:51;;;;;;;23.90;13.70;;;5.90;70.70;;;;;;5057329;28;20534;-42
2022/03/24 06:41:18;;;;;;;23.73;14.13;;;6.00;70.70;;;;;;5053004;28;20461;-42
2022/03/24 06:43:46;;;;;;;23.40;15.07;;;6.00;70.80;;;;;;5060732;28;20538;-42
2022/03/24 06:46:14;;;;;;;19.73;13.60;;;6.10;70.80;;;;;;5057130;28;20480;-42
2022/03/24 06:48:41;;;;;;;23.33;15.40;;;6.10;70.70;;;;;;5054342;28;20455;-42
2022/03/24 06:51:08;;;;;;;23.87;14.50;;;6.20;70.80;;;;;;5056490;28;20461;-42
2022/03/24 06:53:35;;;;;;;31.87;17.20;;;6.20;70.90;;;;;;5043496;28;20853;-42
2022/03/24 06:56:02;;;;;;;27.43;15.23;;;6.30;70.80;;;;;;5062814;28;20860;-42
2022/03/24 06:58:29;;;;;;;22.97;14.47;;;6.40;70.70;;;;;;5056728;28;21035;-42
2022/03/24 07:00:55;;;;;;;25.80;15.90;;;6.50;70.60;;;;;;5062488;28;20451;-42
2022/03/24 07:03:23;;;;;;;23.33;14.67;;;6.50;70.30;;;;;;5056361;28;20964;-42
2022/03/24 07:05:49;;;;;;;20.60;14.47;;;6.60;70.30;;;;;;5055656;28;20472;-42
2022/03/24 07:08:16;;;;;;;26.33;16.77;;;6.70;70.20;;;;;;5053881;28;20963;-42
2022/03/24 07:10:46;;;;;;;27.50;17.47;;;6.70;70.10;;;;;;5057287;28;20846;-42
2022/03/24 07:13:14;;;;;;;25.00;15.77;;;6.80;70.10;;;;;;5054963;28;20461;-42
2022/03/24 07:15:40;;;;;;;26.10;16.10;;;6.90;69.90;;;;;;5053408;28;21018;-42
2022/03/24 07:18:07;;;;;;;26.30;16.70;;;7.00;69.50;;;;;;5061500;28;20490;-42
2022/03/24 07:20:35;;;;;;;24.80;15.57;;;7.10;68.80;;;;;;5053827;28;20916;-43
2022/03/24 07:23:03;;;;;;;34.03;17.70;;;7.20;68.60;;;;;;5054416;28;20946;-43
2022/03/24 07:25:31;;;;;;;26.93;17.30;;;7.30;68.50;;;;;;5057762;28;20511;-43
2022/03/24 07:27:59;;;;;;;23.00;16.20;;;7.50;68.30;;;;;;5052604;28;20450;-42
2022/03/24 07:30:26;;;;;;;29.80;17.17;;;7.60;68.00;;;;;;5068794;28;20570;-43
2022/03/24 07:32:59;;;;;;;26.20;16.47;;;7.70;67.50;;;;;;5062149;28;20482;-43
2022/03/24 07:35:28;;;;;;;30.07;15.70;;;7.80;66.80;;;;;;5058893;28;20501;-43
2022/03/24 07:37:55;;;;;;;25.70;16.93;;;8.00;66.70;;;;;;5061628;28;20903;-43
2022/03/24 07:40:23;;;;;;;25.73;18.50;;;8.10;66.40;;;;;;5060902;28;20454;-43
2022/03/24 07:42:52;;;;;;;26.37;16.63;;;8.20;66.00;;;;;;5053025;28;21256;-43
2022/03/24 07:45:22;;;;;;;23.43;16.83;;;8.40;66.00;;;;;;5056841;28;20513;-43
2022/03/24 07:48:25;;;;;;;25.97;16.43;;;8.50;65.50;;;;;;5059772;28;20994;-44
2022/03/24 07:50:54;;;;;;;27.90;17.20;;;8.70;64.90;;;;;;5059617;28;20542;-43
2022/03/24 07:53:43;;;;;;;31.40;17.27;;;8.80;64.40;;;;;;5047504;28;20464;-43
2022/03/24 07:56:09;;;;;;;26.70;17.93;;;9.00;63.90;;;;;;5055779;28;20514;-43
2022/03/24 07:58:38;;;;;;;27.17;18.00;;;9.30;63.10;;;;;;5062983;28;20535;-43
2022/03/24 08:01:06;;;;;;;26.73;16.93;;;9.50;62.00;;;;;;5058039;28;20444;-43
2022/03/24 08:03:34;;;;;;;27.03;17.63;;;9.70;60.60;;;;;;5050502;28;20951;-44
2022/03/24 08:06:02;;;;;;;25.97;16.90;;;9.90;60.00;;;;;;5060348;28;20538;-43
2022/03/24 08:08:29;;;;;;;26.10;19.40;;;10.10;59.50;;;;;;5048748;28;20553;-43
2022/03/24 08:10:56;;;;;;;25.20;18.80;;;10.30;58.60;;;;;;5062842;28;20454;-43
2022/03/24 08:13:23;;;;;;;25.73;16.07;;;10.60;57.90;;;;;;5064870;28;20893;-43
2022/03/24 08:15:51;;;;;;;25.00;16.50;;;10.80;56.90;;;;;;5060924;28;20485;-43
2022/03/24 08:18:19;;;;;;;25.03;18.00;;;11.10;54.10;;;;;;5060617;28;20454;-43
2022/03/24 08:20:47;;;;;;;26.60;17.20;;;11.30;54.30;;;;;;5042599;28;20446;-43
2022/03/24 08:23:15;;;;;;;21.63;16.47;;;11.50;53.40;;;;;;5057412;28;20536;-43
2022/03/24 08:25:44;;;;;;;26.70;17.73;;;11.70;52.40;;;;;;5059555;28;20673;-43
2022/03/24 08:28:12;;;;;;;26.53;18.07;;;11.90;52.10;;;;;;5065973;28;20458;-43
2022/03/24 08:30:40;;;;;;;26.70;17.00;;;12.10;51.40;;;;;;5058150;28;20457;-43
2022/03/24 08:33:09;;;;;;;27.17;18.40;;;12.30;51.30;;;;;;5064143;28;20550;-43
2022/03/24 08:35:36;;;;;;;23.17;18.10;;;12.50;51.30;;;;;;5054441;28;20490;-42
2022/03/24 08:38:03;;;;;;;27.60;18.53;;;12.70;50.70;;;;;;5047263;28;20574;-42
2022/03/24 08:40:30;;;;;;;28.70;19.33;;;12.90;50.50;;;;;;5057350;28;20450;-42
2022/03/24 08:42:57;;;;;;;32.40;18.47;;;13.00;50.00;;;;;;5062248;28;20475;-43
2022/03/24 08:45:24;;;;;;;28.33;18.80;;;13.20;50.00;;;;;;5061895;28;20895;-43
2022/03/24 08:47:51;;;;;;;28.60;19.03;;;13.50;49.70;;;;;;5062066;28;20479;-42
2022/03/24 08:50:18;;;;;;;28.33;18.30;;;13.80;49.40;;;;;;5057798;28;20542;-42
2022/03/24 08:52:45;;;;;;;26.00;18.70;;;14.00;49.40;;;;;;5038442;28;20581;-42
2022/03/24 08:55:13;;;;;;;31.33;20.63;;;14.30;48.90;;;;;;5063606;28;20589;-42
2022/03/24 08:57:42;;;;;;;27.60;19.17;;;14.60;48.70;;;;;;5059623;28;20546;-42
2022/03/24 09:00:15;;;;;;;27.80;18.90;;;14.90;48.00;;;;;;5038028;28;20814;-43
2022/03/24 09:02:55;;;;;;;27.63;19.43;;;15.10;47.80;;;;;;5058182;28;20474;-42
2022/03/24 09:05:26;;;;;;;31.23;19.70;;;15.30;47.40;;;;;;5057408;28;20460;-42
2022/03/24 09:07:53;;;;;;;27.30;18.57;;;15.50;46.40;;;;;;5059677;28;21035;-42
2022/03/24 09:10:20;;;;;;;25.73;18.60;;;15.70;46.00;;;;;;5057760;28;20482;-42
2022/03/24 09:12:47;;;;;;;26.67;19.00;;;15.90;45.00;;;;;;5061749;28;20452;-42
2022/03/24 09:15:17;;;;;;;28.63;20.50;;;16.10;45.00;;;;;;5057600;28;20567;-43
2022/03/24 09:17:45;;;;;;;31.17;21.30;;;16.30;45.10;;;;;;5060589;28;20447;-43
2022/03/24 09:20:16;;;;;;;32.17;22.30;;;16.50;44.30;;;;;;5047077;28;20840;-43
2022/03/24 09:22:44;;;;;;;34.47;23.20;;;16.70;43.90;;;;;;5039115;28;20704;-44
2022/03/24 09:25:15;;;;;;;32.20;21.90;;;16.80;42.70;;;;;;5059187;28;20961;-43
2022/03/24 09:27:43;;;;;;;32.90;22.03;;;17.00;43.00;;;;;;5059020;28;20453;-43
2022/03/24 09:30:15;;;;;;;28.63;20.43;;;17.10;43.30;;;;;;5059931;28;20453;-43
2022/03/24 09:32:45;;;;;;;27.93;20.40;;;17.30;43.30;;;;;;5055734;28;20913;-43
2022/03/24 09:35:12;;;;;;;37.57;22.70;;;17.30;42.10;;;;;;5058173;28;20510;-43
2022/03/24 09:37:39;;;;;;;27.57;21.23;;;17.40;42.00;;;;;;5056888;28;20998;-43
2022/03/24 09:40:07;;;;;;;31.43;21.30;;;17.50;41.70;;;;;;5060760;28;20849;-43
2022/03/24 09:42:35;;;;;;;32.93;22.13;;;17.60;41.70;;;;;;5058870;28;20907;-43
2022/03/24 09:45:04;;;;;;;28.27;22.17;;;17.80;41.20;;;;;;5056938;28;20474;-43
2022/03/24 09:47:31;;;;;;;31.70;21.23;;;18.00;41.00;;;;;;5058754;28;20486;-43
2022/03/24 09:49:58;;;;;;;36.17;24.80;;;18.20;40.30;;;;;;5056733;28;20835;-43
2022/03/24 09:52:25;;;;;;;32.90;22.77;;;18.50;39.60;;;;;;5058075;28;20475;-43
2022/03/24 09:54:54;;;;;;;40.60;24.47;;;18.60;39.60;;;;;;5055178;28;20581;-43
2022/03/24 09:57:21;;;;;;;34.53;24.00;;;18.80;40.10;;;;;;5055889;28;20573;-43
2022/03/24 09:59:48;;;;;;;36.07;24.40;;;19.10;39.70;;;;;;5056776;28;20452;-43
2022/03/24 10:02:15;;;;;;;34.20;24.63;;;19.20;39.70;;;;;;5059748;28;20844;-43
2022/03/24 10:04:48;;;;;;;37.20;25.70;;;19.40;39.60;;;;;;5059905;28;20962;-43
2022/03/24 10:07:20;;;;;;;33.93;23.67;;;19.60;38.70;;;;;;5059221;28;20464;-43
2022/03/24 10:09:49;;;;;;;34.77;23.13;;;19.80;38.20;;;;;;5040378;28;20479;-43
2022/03/24 10:12:19;;;;;;;37.97;24.90;;;19.90;38.70;;;;;;5057229;28;20463;-43
2022/03/24 10:14:56;;;;;;;40.67;25.40;;;19.90;37.40;;;;;;5046215;28;20961;-43
2022/03/24 10:17:23;;;;;;;37.13;23.33;;;19.90;37.50;;;;;;5055584;28;20493;-43
2022/03/24 10:20:04;;;;;;;35.23;24.73;;;20.00;38.20;;;;;;5063723;28;20988;-43
2022/03/24 10:22:32;;;;;;;38.30;25.03;;;20.30;37.30;;;;;;5057262;28;20489;-43
2022/03/24 10:25:05;;;;;;;36.10;23.13;;;20.50;36.90;;;;;;5057844;28;20474;-43
2022/03/24 10:27:32;;;;;;;36.47;24.27;;;20.80;36.70;;;;;;5058203;28;20475;-43
2022/03/24 10:29:59;;;;;;;36.50;25.07;;;21.10;36.10;;;;;;5059960;28;20473;-43
2022/03/24 10:32:30;;;;;;;37.17;24.53;;;21.40;35.40;;;;;;5059733;28;20465;-43
2022/03/24 10:35:08;;;;;;;36.73;25.77;;;21.80;34.90;;;;;;5060218;28;20988;-43
2022/03/24 10:37:36;;;;;;;36.97;24.67;;;22.20;34.50;;;;;;5043719;28;20490;-43
2022/03/24 10:40:09;;;;;;;31.70;24.87;;;22.50;33.60;;;;;;5039928;28;20557;-43
2022/03/24 10:42:38;;;;;;;31.87;24.07;;;22.80;33.50;;;;;;5058221;28;20469;-43
2022/03/24 10:45:06;;;;;;;35.40;25.87;;;23.00;33.10;;;;;;5057553;28;20456;-44
2022/03/24 10:47:42;;;;;;;36.23;26.30;;;23.30;33.10;;;;;;5053220;28;20842;-44
2022/03/24 10:50:30;;;;;;;34.97;25.17;;;23.60;32.50;;;;;;5055837;28;20456;-44
2022/03/24 10:53:19;;;;;;;36.40;25.73;;;23.80;31.80;;;;;;5057011;28;20495;-44
2022/03/24 10:55:59;;;;;;;37.00;26.50;;;23.90;31.30;;;;;;5056560;28;20490;-44
2022/03/24 10:58:36;;;;;;;31.30;25.90;;;24.10;31.70;;;;;;5056741;28;20463;-43
2022/03/24 11:01:06;;;;;;;32.33;23.83;;;24.20;31.70;;;;;;5036807;28;20441;-43
2022/03/24 11:03:34;;;;;;;36.30;26.33;;;24.30;31.40;;;;;;5055685;28;20528;-43
2022/03/24 11:06:09;;;;;;;35.80;26.77;;;24.40;31.30;;;;;;5058215;28;20924;-43
2022/03/24 11:08:36;;;;;;;36.47;25.87;;;24.50;30.70;;;;;;5058585;28;21045;-43
2022/03/24 11:11:09;;;;;;;35.77;26.10;;;24.60;30.40;;;;;;5055572;28;20461;-43
2022/03/24 11:13:42;;;;;;;31.10;24.80;;;24.60;30.30;;;;;;5057111;28;20814;-43
2022/03/24 11:16:14;;;;;;;35.93;25.33;;;24.70;30.50;;;;;;5058138;28;20862;-43
2022/03/24 11:18:42;;;;;;;33.20;24.70;;;24.80;30.40;;;;;;5056335;28;21008;-43
2022/03/24 11:21:22;;;;;;;34.27;26.40;;;25.00;30.40;;;;;;5044937;28;20967;-43
2022/03/24 11:23:53;;;;;;;36.37;25.13;;;25.00;30.80;;;;;;5056824;28;20469;-43
2022/03/24 11:26:22;;;;;;;33.90;25.70;;;25.00;30.50;;;;;;5057390;28;20466;-43
2022/03/24 11:28:52;;;;;;;111.93;37.00;;;25.00;30.00;;;;;;5057284;28;20449;-43
2022/03/24 11:31:19;;;;;;;38.70;26.20;;;25.00;30.20;;;;;;5058098;28;20457;-43
2022/03/24 11:33:49;;;;;;;35.23;25.53;;;24.80;30.00;;;;;;5054967;28;20449;-43
2022/03/24 11:36:20;;;;;;;39.53;27.10;;;24.80;29.60;;;;;;5057968;28;20518;-43
2022/03/24 11:38:55;;;;;;;35.83;25.23;;;24.60;29.20;;;;;;5058330;28;20449;-43
2022/03/24 11:41:22;;;;;;;29.53;23.57;;;24.50;29.60;;;;;;5059292;28;20456;-43
2022/03/24 11:43:58;;;;;;;30.03;23.47;;;24.40;29.20;;;;;;5042464;28;20541;-43
2022/03/24 11:46:33;;;;;;;27.03;21.40;;;24.30;29.50;;;;;;5058130;28;20482;-44
2022/03/24 11:49:13;;;;;;;32.10;24.10;;;24.20;29.80;;;;;;5058745;28;20461;-43
2022/03/24 11:51:40;;;;;;;32.80;23.73;;;24.20;30.00;;;;;;5056286;28;21049;-43
2022/03/24 11:54:08;;;;;;;35.10;23.00;;;24.20;30.00;;;;;;5056228;28;20823;-43
2022/03/24 11:56:36;;;;;;;30.83;21.93;;;24.20;30.40;;;;;;5057191;28;20978;-44
2022/03/24 11:59:03;;;;;;;31.90;22.97;;;24.20;30.60;;;;;;5058578;28;20455;-44
2022/03/24 12:01:33;;;;;;;31.17;23.23;;;24.10;30.60;;;;;;5056063;28;20449;-44
2022/03/24 12:04:04;;;;;;;32.77;23.90;;;24.00;30.20;;;;;;5057977;28;20455;-44
2022/03/24 12:06:43;;;;;;;;;;;;;;;;;;;;;
2022/03/24 12:09:12;;;;;;;30.47;23.70;;;23.70;29.90;;;;;;5055203;28;20461;-44
2022/03/24 12:11:47;;;;;;;34.00;23.43;;;23.60;29.50;;;;;;5037212;28;20883;-44
2022/03/24 12:14:36;;;;;;;32.20;24.80;;;23.40;29.90;;;;;;5043892;28;20467;-44
2022/03/24 12:17:14;;;;;;;31.40;22.03;;;23.40;29.80;;;;;;5041631;28;20578;-44
2022/03/24 12:19:49;;;;;;;28.80;20.30;;;23.30;30.00;;;;;;5063176;28;20866;-44
2022/03/24 12:22:25;;;;;;;27.93;20.77;;;23.30;30.60;;;;;;5062580;28;20457;-44
2022/03/24 12:25:13;;;;;;;28.70;19.80;;;23.20;29.50;;;;;;5057181;28;20488;-44
2022/03/24 12:28:00;;;;;;;26.40;19.57;;;23.10;29.00;;;;;;5061362;28;20963;-44
2022/03/24 12:30:44;;;;;;;28.00;21.40;;;23.00;30.40;;;;;;5058402;28;20477;-44
2022/03/24 12:33:14;;;;;;;34.00;21.90;;;23.00;29.90;;;;;;5060307;28;20946;-44
2022/03/24 12:35:55;;;;;;;30.53;23.47;;;22.80;30.00;;;;;;5061712;28;20465;-44
2022/03/24 12:38:33;;;;;;;29.40;22.17;;;22.60;30.30;;;;;;5044077;28;20462;-44
2022/03/24 12:41:05;;;;;;;30.23;22.17;;;22.50;32.50;;;;;;5062076;28;20474;-44
2022/03/24 12:43:54;;;;;;;30.63;22.60;;;22.50;31.60;;;;;;5057693;28;20454;-44